Time;durP1;ratioP1;P1;durP2;ratioP2;P2;SDS_P1;SDS_P2;PMS_P1;PMS_P2;Temp;Humidity;BMP_temperature;BMP_pressure;BME280_temperature;BME280_humidity;BME280_pressure;Samples;Min_cycle;Max_cycle;Signal;HPM_P1;HPM_P2
2021/09/22 00:01:00;;;;;;;;;;;;;;;21.73;64.02;100554.78;2069780;28;19920;-61
2021/09/22 00:02:00;;;;;;;;;;;;;;;21.74;64.20;100553.75;2069685;28;20368;-63
2021/09/22 00:03:00;;;;;;;;;;;;;;;21.74;63.96;100548.25;2070305;28;19927;-61
2021/09/22 00:04:01;;;;;;;;;;;;;;;21.74;64.13;100553.75;2069543;28;19936;-61
2021/09/22 00:05:01;;;;;;;;;;;;;;;21.72;64.16;100553.03;2066807;28;19913;-61
2021/09/22 00:06:02;;;;;;;;;;;;;;;21.74;64.01;100556.50;2067110;28;20454;-61
2021/09/22 00:07:02;;;;;;;;;;;;;;;21.74;63.96;100563.88;2065633;28;19948;-61
2021/09/22 00:08:03;;;;;;;;;;;;;;;21.73;64.00;100557.53;2079569;28;19920;-61
2021/09/22 00:09:03;;;;;;;;;;;;;;;21.73;63.81;100557.53;2063464;28;20583;-61
2021/09/22 00:10:07;;;;;;;;;;;;;;;21.73;64.13;100559.38;2063910;28;20611;-61
2021/09/22 00:11:07;;;;;;;;;;;;;;;21.72;64.04;100561.28;2062467;28;19988;-62
2021/09/22 00:12:09;;;;;;;;;;;;;;;21.72;63.98;100558.53;2067244;28;19912;-62
2021/09/22 00:13:09;;;;;;;;;;;;;;;21.72;64.14;100560.41;2069359;28;19905;-62
2021/09/22 00:14:09;;;;;;;;;;;;;;;21.72;63.75;100555.78;2063078;28;20336;-62
2021/09/22 00:15:12;;;;;;;;;;;;;;;21.72;64.16;100555.78;2064291;28;20346;-62
2021/09/22 00:16:12;;;;;;;;;;;;;;;21.71;63.91;100548.59;2062049;28;19914;-62
2021/09/22 00:17:12;;;;;;;;;;;;;;;21.72;64.12;100554.94;2062726;28;19928;-62
2021/09/22 00:18:13;;;;;;;;;;;;;;;21.72;63.90;100550.28;2071198;28;19917;-62
2021/09/22 00:19:13;;;;;;;;;;;;;;;21.71;64.05;100553.22;2070913;28;19917;-62
2021/09/22 00:20:14;;;;;;;;;;;;;;;21.71;64.13;100548.59;2068317;28;19912;-62
2021/09/22 00:21:14;;;;;;;;;;;;;;;21.71;64.16;100542.25;2069542;28;19964;-62
2021/09/22 00:22:14;;;;;;;;;;;;;;;21.70;63.83;100540.50;2066547;28;19909;-62
2021/09/22 00:23:15;;;;;;;;;;;;;;;21.70;63.89;100541.34;2068138;28;19901;-62
2021/09/22 00:24:15;;;;;;;;;;;;;;;21.70;64.08;100541.34;2069101;28;20077;-62
2021/09/22 00:25:15;;;;;;;;;;;;;;;21.69;64.06;100534.16;2069225;28;20385;-62
2021/09/22 00:26:16;;;;;;;;;;;;;;;21.70;63.86;100541.34;2067654;28;19913;-62
2021/09/22 00:27:16;;;;;;;;;;;;;;;21.69;64.01;100536.91;2064704;28;20051;-62
2021/09/22 00:28:16;;;;;;;;;;;;;;;21.69;63.85;100528.66;2068841;28;20249;-62
2021/09/22 00:29:17;;;;;;;;;;;;;;;21.70;63.84;100535.88;2071124;28;20007;-62
2021/09/22 00:30:18;;;;;;;;;;;;;;;21.70;63.97;100530.38;2067100;28;19909;-62
2021/09/22 00:31:19;;;;;;;;;;;;;;;21.69;64.04;100530.56;2069668;28;19917;-62
2021/09/22 00:32:19;;;;;;;;;;;;;;;21.70;64.06;100535.00;2064315;28;20091;-62
2021/09/22 00:33:19;;;;;;;;;;;;;;;21.68;63.77;100532.44;2067659;28;19916;-62
2021/09/22 00:34:20;;;;;;;;;;;;;;;21.68;63.90;100526.94;2069465;28;19909;-62
2021/09/22 00:35:20;;;;;;;;;;;;;;;21.69;64.05;100530.56;2068237;28;19912;-62
2021/09/22 00:36:20;;;;;;;;;;;;;;;21.69;64.07;100528.66;2066612;28;19997;-62
2021/09/22 00:37:21;;;;;;;;;;;;;;;21.69;63.82;100527.81;2064684;28;19984;-62
2021/09/22 00:38:21;;;;;;;;;;;;;;;21.68;63.92;100524.22;2066927;28;19913;-60
2021/09/22 00:39:21;;;;;;;;;;;;;;;21.68;63.86;100532.44;2062633;28;19913;-60
2021/09/22 00:40:24;;;;;;;;;;;;;;;21.68;63.81;100526.94;2067021;28;19923;-61
2021/09/22 00:41:25;;;;;;;;;;;;;;;21.67;63.93;100525.22;2065287;28;19905;-60
2021/09/22 00:42:25;;;;;;;;;;;;;;;21.67;63.99;100527.94;2062910;28;19924;-60
2021/09/22 00:43:26;;;;;;;;;;;;;;;21.68;64.04;100531.56;2066662;28;20074;-62
2021/09/22 00:44:26;;;;;;;;;;;;;;;21.68;64.05;100532.44;2064326;28;19959;-60
2021/09/22 00:45:27;;;;;;;;;;;;;;;21.68;63.91;100537.03;2065932;28;20308;-60
2021/09/22 00:46:27;;;;;;;;;;;;;;;21.67;63.97;100527.94;2067529;28;19916;-60
2021/09/22 00:47:28;;;;;;;;;;;;;;;21.67;63.93;100525.22;2063685;28;20427;-61
2021/09/22 00:48:28;;;;;;;;;;;;;;;21.67;63.77;100525.22;2068116;28;20032;-60
2021/09/22 00:51:07;;;;;;;;;;;;;;;21.66;64.01;100515.28;2065318;28;19929;-61
2021/09/22 00:52:07;;;;;;;;;;;;;;;21.66;63.69;100520.75;2065911;28;19917;-61
2021/09/22 00:53:09;;;;;;;;;;;;;;;21.66;63.93;100518.00;2068787;28;19913;-61
2021/09/22 00:54:18;;;;;;;;;;;;;;;21.66;63.95;100523.50;2068737;28;19924;-61
2021/09/22 00:55:18;;;;;;;;;;;;;;;21.66;63.80;100519.91;2067367;28;19905;-61
2021/09/22 00:56:20;;;;;;;;;;;;;;;21.67;63.76;100524.34;2070390;28;19954;-61
2021/09/22 00:57:21;;;;;;;;;;;;;;;21.66;63.74;100522.66;2068555;28;19905;-61
2021/09/22 00:58:21;;;;;;;;;;;;;;;21.66;63.72;100518.00;2067992;28;19944;-61
2021/09/22 00:59:21;;;;;;;;;;;;;;;21.65;63.68;100524.50;2065561;28;19933;-61
2021/09/22 01:00:24;;;;;;;;;;;;;;;21.66;63.68;100522.66;2063216;28;19913;-61
2021/09/22 01:01:25;;;;;;;;;;;;;;;21.65;63.73;100505.28;2062059;28;20222;-61
2021/09/22 01:02:25;;;;;;;;;;;;;;;21.65;63.81;100505.28;2067808;28;20136;-61
2021/09/22 01:03:26;;;;;;;;;;;;;;;21.65;63.89;100499.81;2068510;28;19967;-61
2021/09/22 01:04:27;;;;;;;;;;;;;;;21.65;63.66;100497.06;2063518;28;20023;-61
2021/09/22 01:05:28;;;;;;;;;;;;;;;21.65;63.94;100496.22;2065894;28;20471;-61
2021/09/22 01:06:28;;;;;;;;;;;;;;;21.65;63.82;100501.69;2069531;28;20628;-61
2021/09/22 01:07:28;;;;;;;;;;;;;;;21.64;63.88;100498.09;2069003;28;20410;-61
2021/09/22 01:08:30;;;;;;;;;;;;;;;21.64;64.01;100497.25;2066799;28;20388;-61
2021/09/22 01:09:30;;;;;;;;;;;;;;;21.64;63.93;100503.59;2070506;28;19913;-61
2021/09/22 01:10:31;;;;;;;;;;;;;;;21.64;63.70;100500.84;2064243;28;20553;-62
2021/09/22 01:11:34;;;;;;;;;;;;;;;21.63;63.81;100496.34;2062043;28;19964;-61
2021/09/22 01:12:34;;;;;;;;;;;;;;;21.64;63.85;100505.47;2063013;28;20625;-61
2021/09/22 01:13:34;;;;;;;;;;;;;;;21.63;63.76;100493.59;2064926;28;20826;-61
2021/09/22 01:14:35;;;;;;;;;;;;;;;21.64;63.64;100492.59;2069466;28;19908;-61
2021/09/22 01:15:37;;;;;;;;;;;;;;;21.63;63.63;100496.34;2068505;28;20832;-61
2021/09/22 01:16:44;;;;;;;;;;;;;;;21.62;63.95;100502.88;2067341;28;20321;-61
2021/09/22 01:17:45;;;;;;;;;;;;;;;21.63;63.62;100501.84;2070119;28;19909;-61
2021/09/22 01:18:45;;;;;;;;;;;;;;;21.62;63.94;100500.13;2066866;28;19912;-61
2021/09/22 01:19:45;;;;;;;;;;;;;;;21.63;63.96;100504.59;2068834;28;19956;-61
2021/09/22 01:20:50;;;;;;;;;;;;;;;21.62;63.69;100506.47;2067980;28;19913;-61
2021/09/22 01:21:52;;;;;;;;;;;;;;;21.62;63.77;100500.13;2069826;28;20503;-61
2021/09/22 01:22:53;;;;;;;;;;;;;;;21.62;63.96;100500.13;2067153;28;20344;-61
2021/09/22 01:23:53;;;;;;;;;;;;;;;21.62;63.63;100497.38;2069176;28;19935;-60
2021/09/22 01:24:53;;;;;;;;;;;;;;;21.62;63.77;100500.13;2067664;28;20090;-61
2021/09/22 01:25:54;;;;;;;;;;;;;;;21.62;63.67;100500.13;2067839;28;20020;-62
2021/09/22 01:27:00;;;;;;;;;;;;;;;21.61;63.87;100498.41;2067497;28;19909;-61
2021/09/22 01:28:02;;;;;;;;;;;;;;;21.61;63.95;100496.53;2067985;28;20012;-61
2021/09/22 01:29:03;;;;;;;;;;;;;;;21.61;63.75;100491.03;2066062;28;20583;-61
2021/09/22 01:30:03;;;;;;;;;;;;;;;21.62;63.82;100498.25;2068207;28;20237;-61
2021/09/22 01:31:04;;;;;;;;;;;;;;;21.61;63.75;100495.69;2069871;28;19916;-62
2021/09/22 01:32:05;;;;;;;;;;;;;;;21.61;63.85;100492.94;2067070;28;20337;-62
2021/09/22 01:33:07;;;;;;;;;;;;;;;21.62;63.82;100486.41;2067888;28;20048;-62
2021/09/22 01:34:09;;;;;;;;;;;;;;;21.62;63.72;100489.16;2069928;28;19919;-62
2021/09/22 01:35:09;;;;;;;;;;;;;;;21.61;63.70;100490.19;2067032;28;20132;-61
2021/09/22 01:36:13;;;;;;;;;;;;;;;21.61;63.62;100490.19;2068742;28;19913;-61
2021/09/22 01:37:13;;;;;;;;;;;;;;;21.60;63.84;100492.03;2070104;28;19913;-61
2021/09/22 01:38:15;;;;;;;;;;;;;;;21.60;63.73;100488.44;2066077;28;19917;-62
2021/09/22 01:39:15;;;;;;;;;;;;;;;21.60;63.66;100492.03;2070574;28;19909;-61
2021/09/22 01:40:16;;;;;;;;;;;;;;;21.60;63.83;100492.03;2069458;28;19915;-61
2021/09/22 01:41:16;;;;;;;;;;;;;;;21.60;63.55;100492.03;2070708;28;19909;-61
2021/09/22 01:42:16;;;;;;;;;;;;;;;21.61;63.78;100498.41;2066848;28;19905;-61
2021/09/22 01:43:17;;;;;;;;;;;;;;;21.60;63.68;100496.69;2066780;28;20057;-61
2021/09/22 01:44:17;;;;;;;;;;;;;;;21.60;63.72;100493.94;2067752;28;19948;-61
2021/09/22 01:45:17;;;;;;;;;;;;;;;21.60;63.50;100496.69;2067795;28;19913;-62
2021/09/22 01:46:18;;;;;;;;;;;;;;;21.60;63.66;100497.53;2069588;28;20307;-61
2021/09/22 01:47:18;;;;;;;;;;;;;;;21.61;63.69;100492.94;2069371;28;19921;-62
2021/09/22 01:48:19;;;;;;;;;;;;;;;21.60;63.84;100493.94;2066413;28;19962;-62
2021/09/22 01:49:25;;;;;;;;;;;;;;;21.59;63.68;100492.22;2070582;28;20323;-61
2021/09/22 01:50:25;;;;;;;;;;;;;;;21.59;63.70;100495.81;2068164;28;19925;-62
2021/09/22 01:51:26;;;;;;;;;;;;;;;21.60;63.50;100491.19;2069761;28;19921;-61
2021/09/22 01:52:26;;;;;;;;;;;;;;;21.60;63.81;100491.19;2066952;28;19955;-62
2021/09/22 01:53:27;;;;;;;;;;;;;;;21.60;63.57;100485.69;2067313;28;19921;-61
2021/09/22 01:54:27;;;;;;;;;;;;;;;21.60;63.89;100489.31;2070122;28;19956;-61
2021/09/22 01:55:28;;;;;;;;;;;;;;;21.60;63.65;100491.19;2067161;28;19947;-61
2021/09/22 01:56:28;;;;;;;;;;;;;;;21.60;63.58;100485.69;2069639;28;20382;-61
2021/09/22 01:57:28;;;;;;;;;;;;;;;21.59;63.81;100490.34;2068232;28;20434;-61
2021/09/22 01:58:29;;;;;;;;;;;;;;;21.59;63.81;100486.72;2067388;28;20019;-62
2021/09/22 01:59:29;;;;;;;;;;;;;;;21.59;63.78;100489.47;2068914;28;19927;-62
2021/09/22 02:00:30;;;;;;;;;;;;;;;21.59;63.55;100489.47;2067238;28;20456;-61
2021/09/22 02:01:30;;;;;;;;;;;;;;;21.59;63.44;100489.47;2068311;28;20049;-61
2021/09/22 02:02:31;;;;;;;;;;;;;;;;;;2068421;28;20371;-62
2021/09/22 02:03:32;;;;;;;;;;;;;;;21.59;63.71;100484.00;2066861;28;19965;-62
2021/09/22 02:04:32;;;;;;;;;;;;;;;21.59;63.65;100490.34;2061261;28;19913;-61
2021/09/22 02:05:32;;;;;;;;;;;;;;;21.58;63.41;100487.72;2069957;28;20655;-61
2021/09/22 02:06:35;;;;;;;;;;;;;;;21.59;63.81;100492.22;2075814;28;20294;-62
2021/09/22 02:07:36;;;;;;;;;;;;;;;21.59;63.67;100486.72;2060607;28;19920;-62
2021/09/22 02:08:39;;;;;;;;;;;;;;;;;;2060002;28;19913;-62
2021/09/22 02:09:39;;;;;;;;;;;;;;;21.59;63.64;100494.97;2066557;28;19905;-62
2021/09/22 02:11:07;;;;;;;;;;;;;;;21.58;63.72;100495.97;2068484;28;20568;-62
2021/09/22 02:12:08;;;;;;;;;;;;;;;21.57;63.58;100492.38;2063210;28;20028;-62
2021/09/22 02:13:08;;;;;;;;;;;;;;;21.57;63.49;100492.38;2068656;28;20098;-62
2021/09/22 02:14:09;;;;;;;;;;;;;;;21.57;63.75;100488.78;2068371;28;19939;-62
2021/09/22 02:15:09;;;;;;;;;;;;;;;21.58;63.78;100493.22;2068337;28;20047;-62
2021/09/22 02:16:09;;;;;;;;;;;;;;;;;;2067840;28;19913;-62
2021/09/22 02:17:10;;;;;;;;;;;;;;;21.57;63.44;100491.50;2068644;28;19982;-62
2021/09/22 02:18:10;;;;;;;;;;;;;;;21.57;63.71;100486.03;2064371;28;20934;-62
2021/09/22 02:19:10;;;;;;;;;;;;;;;21.56;63.66;100485.16;2064414;28;19912;-62
2021/09/22 02:20:11;;;;;;;;;;;;;;;21.56;63.42;100484.31;2069814;28;20594;-62
2021/09/22 02:21:18;;;;;;;;;;;;;;;21.56;63.44;100487.91;2067833;28;20368;-62
2021/09/22 02:22:18;;;;;;;;;;;;;;;21.57;63.81;100486.03;2063581;28;19995;-62
2021/09/22 02:23:18;;;;;;;;;;;;;;;21.57;63.58;100475.06;2067526;28;20540;-62
2021/09/22 02:24:19;;;;;;;;;;;;;;;21.57;63.43;100469.56;2069652;28;19915;-62
2021/09/22 02:25:19;;;;;;;;;;;;;;;21.57;63.77;100469.56;2065552;28;19917;-62
2021/09/22 02:26:19;;;;;;;;;;;;;;;21.58;63.37;100476.75;2068342;28;19916;-62
2021/09/22 02:27:20;;;;;;;;;;;;;;;21.57;63.49;100480.53;2067936;28;19962;-62
2021/09/22 02:28:20;;;;;;;;;;;;;;;21.57;63.43;100469.56;2066251;28;19988;-62
2021/09/22 02:29:21;;;;;;;;;;;;;;;21.57;63.37;100475.06;2067513;28;20331;-62
2021/09/22 02:30:22;;;;;;;;;;;;;;;21.55;63.78;100468.84;2067005;28;20299;-62
2021/09/22 02:31:23;;;;;;;;;;;;;;;21.56;63.67;100462.38;2068425;28;19912;-62
2021/09/22 02:32:23;;;;;;;;;;;;;;;21.56;63.51;100462.38;2067470;28;19913;-62
2021/09/22 02:33:23;;;;;;;;;;;;;;;21.56;63.56;100459.63;2068390;28;19908;-62
2021/09/22 02:34:23;;;;;;;;;;;;;;;21.57;63.59;100464.06;2068634;28;19901;-62
2021/09/22 02:35:24;;;;;;;;;;;;;;;21.56;63.49;100463.22;2064019;28;19914;-62
2021/09/22 02:36:25;;;;;;;;;;;;;;;21.55;63.54;100463.38;2067562;28;19913;-62
2021/09/22 02:37:26;;;;;;;;;;;;;;;21.54;63.72;100464.41;2064130;28;19920;-62
2021/09/22 02:38:26;;;;;;;;;;;;;;;21.55;63.42;100463.38;2065355;28;19912;-62
2021/09/22 02:39:26;;;;;;;;;;;;;;;21.55;63.39;100468.84;2068125;28;20386;-62
2021/09/22 02:40:27;;;;;;;;;;;;;;;21.55;63.37;100460.63;2064782;28;19905;-62
2021/09/22 02:41:27;;;;;;;;;;;;;;;21.55;63.70;100461.47;2061823;28;20285;-62
2021/09/22 02:42:27;;;;;;;;;;;;;;;21.56;63.53;100462.38;2066614;28;19904;-62
2021/09/22 02:43:28;;;;;;;;;;;;;;;21.54;63.73;100447.94;2067691;28;19913;-62
2021/09/22 02:44:28;;;;;;;;;;;;;;;21.54;63.63;100445.19;2069199;28;19912;-62
2021/09/22 02:45:28;;;;;;;;;;;;;;;21.54;63.32;100445.19;2068518;28;20847;-62
2021/09/22 02:46:29;;;;;;;;;;;;;;;21.54;63.42;100442.47;2068665;28;19963;-62
2021/09/22 02:47:29;;;;;;;;;;;;;;;21.54;63.63;100431.50;2069202;28;19913;-62
2021/09/22 02:48:30;;;;;;;;;;;;;;;21.53;63.57;100432.50;2066434;28;20016;-62
2021/09/22 02:49:30;;;;;;;;;;;;;;;21.53;63.57;100432.50;2070135;28;19963;-62
2021/09/22 02:50:31;;;;;;;;;;;;;;;21.53;63.67;100430.59;2069247;28;19912;-62
2021/09/22 02:51:31;;;;;;;;;;;;;;;21.53;63.51;100424.25;2064866;28;19921;-62
2021/09/22 02:52:32;;;;;;;;;;;;;;;21.54;63.47;100437.81;2070040;28;19917;-62
2021/09/22 02:53:33;;;;;;;;;;;;;;;21.53;63.38;100425.13;2066738;28;19932;-62
2021/09/22 02:54:33;;;;;;;;;;;;;;;21.54;63.48;100428.75;2065819;28;20004;-62
2021/09/22 02:55:34;;;;;;;;;;;;;;;21.54;63.32;100424.13;2061123;28;20476;-62
2021/09/22 02:56:34;;;;;;;;;;;;;;;21.54;63.56;100426.00;2065138;28;19939;-61
2021/09/22 02:57:34;;;;;;;;;;;;;;;21.53;63.44;100427.84;2067097;28;19920;-62
2021/09/22 02:58:47;;;;;;;;;;;;;;;21.53;63.62;100432.50;2067971;28;19924;-62
2021/09/22 02:59:47;;;;;;;;;;;;;;;21.52;63.51;100423.41;2068205;28;19947;-62
2021/09/22 03:00:48;;;;;;;;;;;;;;;21.53;63.71;100422.38;2068429;28;19908;-62
2021/09/22 03:01:48;;;;;;;;;;;;;;;21.53;63.51;100424.25;2068497;28;19915;-61
2021/09/22 03:02:48;;;;;;;;;;;;;;;21.52;63.46;100420.66;2059123;28;19905;-62
2021/09/22 03:03:49;;;;;;;;;;;;;;;21.53;63.70;100422.38;2059088;28;20682;-62
2021/09/22 03:04:49;;;;;;;;;;;;;;;21.53;63.41;100425.13;2070107;28;19924;-62
2021/09/22 03:05:49;;;;;;;;;;;;;;;21.52;63.51;100426.16;2065866;28;19905;-61
2021/09/22 03:06:49;;;;;;;;;;;;;;;21.53;63.32;100430.59;2067399;28;19913;-62
2021/09/22 03:07:50;;;;;;;;;;;;;;;21.53;63.57;100429.75;2068099;28;19936;-62
2021/09/22 03:08:50;;;;;;;;;;;;;;;21.54;63.53;100431.50;2067187;28;19916;-61
2021/09/22 03:09:50;;;;;;;;;;;;;;;21.54;63.45;100431.50;2063338;28;20586;-61
2021/09/22 03:10:51;;;;;;;;;;;;;;;21.53;63.36;100432.50;2066791;28;19959;-61
2021/09/22 03:11:52;;;;;;;;;;;;;;;21.53;63.42;100432.50;2066387;28;20692;-61
2021/09/22 03:12:55;;;;;;;;;;;;;;;21.52;63.42;100430.78;2068070;28;19913;-61
2021/09/22 03:13:55;;;;;;;;;;;;;;;21.52;63.30;100423.41;2069990;28;20464;-61
2021/09/22 03:14:57;;;;;;;;;;;;;;;21.52;63.65;100423.41;2069185;28;20316;-61
2021/09/22 03:15:57;;;;;;;;;;;;;;;21.52;63.41;100428.03;2067583;28;19964;-61
2021/09/22 03:16:57;;;;;;;;;;;;;;;21.52;63.59;100428.03;2065290;28;20497;-61
2021/09/22 03:17:57;;;;;;;;;;;;;;;21.51;63.49;100427.19;2070403;28;19967;-61
2021/09/22 03:18:59;;;;;;;;;;;;;;;21.52;63.76;100422.56;2069676;28;19971;-61
2021/09/22 03:19:59;;;;;;;;;;;;;;;21.51;63.58;100427.19;2070463;28;20280;-61
2021/09/22 03:21:00;;;;;;;;;;;;;;;21.52;63.48;100422.56;2064999;28;19996;-61
2021/09/22 03:22:00;;;;;;;;;;;;;;;21.51;63.42;100424.44;2067750;28;19990;-61
2021/09/22 03:23:00;;;;;;;;;;;;;;;21.51;63.51;100424.44;2065267;28;19919;-61
2021/09/22 03:24:00;;;;;;;;;;;;;;;21.51;63.50;100416.22;2067234;28;19920;-61
2021/09/22 03:25:01;;;;;;;;;;;;;;;21.52;63.57;100428.03;2064059;28;20200;-61
2021/09/22 03:26:01;;;;;;;;;;;;;;;21.52;63.61;100422.56;2067459;28;20560;-62
2021/09/22 03:27:02;;;;;;;;;;;;;;;21.51;63.44;100427.19;2065834;28;20639;-62
2021/09/22 03:28:02;;;;;;;;;;;;;;;21.52;63.59;100422.56;2070327;28;19917;-62
2021/09/22 03:29:02;;;;;;;;;;;;;;;21.52;63.40;100422.56;2069511;28;20540;-62
2021/09/22 03:30:04;;;;;;;;;;;;;;;21.52;63.65;100411.56;2063698;28;19959;-61
2021/09/22 03:31:04;;;;;;;;;;;;;;;21.51;63.44;100420.81;2065105;28;19920;-61
2021/09/22 03:32:04;;;;;;;;;;;;;;;21.51;63.43;100415.31;2067827;28;19949;-61
2021/09/22 03:33:05;;;;;;;;;;;;;;;21.51;63.59;100409.84;2066718;28;20063;-61
2021/09/22 03:34:05;;;;;;;;;;;;;;;21.51;63.60;100404.34;2067993;28;19916;-61
2021/09/22 03:35:06;;;;;;;;;;;;;;;21.50;63.43;100408.97;2066393;28;20275;-61
2021/09/22 03:36:07;;;;;;;;;;;;;;;21.51;63.35;100412.56;2070358;28;20376;-62
2021/09/22 03:37:07;;;;;;;;;;;;;;;21.51;63.38;100404.34;2069435;28;19952;-62
2021/09/22 03:38:07;;;;;;;;;;;;;;;21.50;63.47;100408.97;2068581;28;19924;-61
2021/09/22 03:39:08;;;;;;;;;;;;;;;21.51;63.41;100409.84;2070414;28;19970;-62
2021/09/22 03:40:08;;;;;;;;;;;;;;;21.51;63.57;100420.81;2068979;28;19913;-61
2021/09/22 03:41:09;;;;;;;;;;;;;;;21.51;63.39;100415.31;2069141;28;19932;-61
2021/09/22 03:42:09;;;;;;;;;;;;;;;21.50;63.56;100413.63;2062651;28;20021;-62
2021/09/22 03:43:15;;;;;;;;;;;;;;;21.50;63.37;100408.13;2062249;28;19914;-62
2021/09/22 03:44:16;;;;;;;;;;;;;;;21.51;63.30;100420.81;2061216;28;19905;-62
2021/09/22 03:45:16;;;;;;;;;;;;;;;21.50;63.45;100414.47;2063236;28;19960;-62
2021/09/22 03:46:16;;;;;;;;;;;;;;;21.51;63.56;100415.31;2063857;28;19913;-61
2021/09/22 03:47:17;;;;;;;;;;;;;;;21.49;63.46;100412.75;2068670;28;19905;-61
2021/09/22 03:48:17;;;;;;;;;;;;;;;21.50;63.64;100416.34;2067885;28;20383;-61
2021/09/22 03:49:17;;;;;;;;;;;;;;;21.50;63.54;100413.63;2068394;28;20467;-61
2021/09/22 03:50:18;;;;;;;;;;;;;;;21.49;63.52;100412.75;2068766;28;19952;-62
2021/09/22 03:51:18;;;;;;;;;;;;;;;21.49;63.66;100407.28;2066682;28;20170;-62
2021/09/22 03:52:18;;;;;;;;;;;;;;;21.49;63.58;100410.00;2070291;28;19928;-61
2021/09/22 03:53:20;;;;;;;;;;;;;;;21.48;63.26;100415.66;2068689;28;19920;-61
2021/09/22 03:54:22;;;;;;;;;;;;;;;21.49;63.22;100406.41;2070341;28;19973;-61
2021/09/22 03:55:22;;;;;;;;;;;;;;;21.50;63.56;100410.88;2068032;28;20423;-62
2021/09/22 03:56:22;;;;;;;;;;;;;;;21.49;63.26;100409.16;2068448;28;20367;-61
2021/09/22 03:57:23;;;;;;;;;;;;;;;21.47;63.43;100403.81;2070329;28;19935;-62
2021/09/22 03:58:23;;;;;;;;;;;;;;;21.47;63.37;100409.31;2069053;28;19920;-62
2021/09/22 03:59:29;;;;;;;;;;;;;;;21.47;63.36;100409.31;2062742;28;19913;-62
2021/09/22 04:00:30;;;;;;;;;;;;;;;21.49;63.50;100403.69;2070049;28;20287;-61
2021/09/22 04:01:30;;;;;;;;;;;;;;;21.47;63.38;100406.56;2068971;28;20549;-62
2021/09/22 04:02:30;;;;;;;;;;;;;;;21.47;63.68;100398.34;2068921;28;20731;-62
2021/09/22 04:03:31;;;;;;;;;;;;;;;21.49;63.49;100406.41;2069307;28;19924;-61
2021/09/22 04:04:31;;;;;;;;;;;;;;;21.47;63.51;100400.22;2066907;28;19920;-61
2021/09/22 04:05:32;;;;;;;;;;;;;;;21.47;63.51;100397.47;2071408;28;20380;-62
2021/09/22 04:06:32;;;;;;;;;;;;;;;21.48;63.55;100400.03;2068300;28;19959;-62
2021/09/22 04:07:32;;;;;;;;;;;;;;;21.47;63.43;100398.34;2067888;28;20450;-62
2021/09/22 04:08:33;;;;;;;;;;;;;;;21.47;63.51;100397.47;2068670;28;20709;-62
2021/09/22 04:09:33;;;;;;;;;;;;;;;21.46;63.52;100396.63;2069607;28;19978;-62
2021/09/22 04:10:33;;;;;;;;;;;;;;;21.46;63.56;100398.47;2069213;28;20371;-61
2021/09/22 04:11:34;;;;;;;;;;;;;;;21.46;63.22;100398.47;2068373;28;19975;-61
2021/09/22 04:12:34;;;;;;;;;;;;;;;21.47;63.27;100392.00;2068377;28;20490;-61
2021/09/22 04:13:35;;;;;;;;;;;;;;;21.46;63.58;100390.25;2070382;28;19924;-61
2021/09/22 04:14:35;;;;;;;;;;;;;;;21.46;63.36;100390.25;2068764;28;21101;-62
2021/09/22 04:15:35;;;;;;;;;;;;;;;21.47;63.47;100392.00;2069313;28;19913;-61
2021/09/22 04:16:35;;;;;;;;;;;;;;;21.46;63.67;100391.13;2069517;28;19911;-61
2021/09/22 04:17:36;;;;;;;;;;;;;;;21.46;63.46;100395.75;2067694;28;20805;-62
2021/09/22 04:18:37;;;;;;;;;;;;;;;21.46;63.54;100391.13;2068833;28;19921;-62
2021/09/22 04:19:37;;;;;;;;;;;;;;;21.46;63.31;100385.66;2069883;28;19960;-62
2021/09/22 04:20:37;;;;;;;;;;;;;;;21.45;63.55;100383.91;2068318;28;19947;-62
2021/09/22 04:22:00;;;;;;;;;;;;;;;21.46;63.24;100387.50;2069717;28;19913;-62
2021/09/22 04:23:05;;;;;;;;;;;;;;;21.46;63.35;100388.41;2066321;28;20659;-62
2021/09/22 04:24:11;;;;;;;;;;;;;;;21.46;63.33;100390.25;2066391;28;19936;-61
2021/09/22 04:25:12;;;;;;;;;;;;;;;21.45;63.51;100388.53;2068799;28;19912;-62
2021/09/22 04:26:12;;;;;;;;;;;;;;;21.45;63.24;100388.53;2069201;28;19955;-62
2021/09/22 04:27:13;;;;;;;;;;;;;;;21.45;63.30;100392.16;2066402;28;19905;-62
2021/09/22 04:28:13;;;;;;;;;;;;;;;21.46;63.58;100395.75;2067859;28;20426;-61
2021/09/22 04:29:13;;;;;;;;;;;;;;;21.45;63.56;100389.41;2069761;28;19917;-61
2021/09/22 04:30:14;;;;;;;;;;;;;;;21.46;63.35;100399.38;2066871;28;19932;-62
2021/09/22 04:31:14;;;;;;;;;;;;;;;21.46;63.48;100401.22;2068730;28;19912;-62
2021/09/22 04:32:14;;;;;;;;;;;;;;;21.46;63.20;100401.22;2069261;28;19901;-62
2021/09/22 04:33:15;;;;;;;;;;;;;;;21.45;63.47;100405.00;2068908;28;19909;-61
2021/09/22 04:34:15;;;;;;;;;;;;;;;21.45;63.45;100402.25;2070607;28;19951;-61
2021/09/22 04:35:15;;;;;;;;;;;;;;;21.47;63.40;100419.41;2063818;28;19914;-61
2021/09/22 04:36:16;;;;;;;;;;;;;;;21.46;63.33;100409.44;2062489;28;19906;-62
2021/09/22 04:37:16;;;;;;;;;;;;;;;21.47;63.30;100413.94;2078136;28;19916;-62
2021/09/22 04:38:17;;;;;;;;;;;;;;;21.46;63.22;100417.69;2072322;28;19970;-62
2021/09/22 04:39:17;;;;;;;;;;;;;;;21.45;63.51;100422.31;2069589;28;19913;-62
2021/09/22 04:40:17;;;;;;;;;;;;;;;21.45;63.34;100424.19;2067378;28;19905;-62
2021/09/22 04:41:18;;;;;;;;;;;;;;;21.46;63.39;100423.16;2068228;28;19951;-61
2021/09/22 04:42:18;;;;;;;;;;;;;;;21.45;63.18;100424.19;2063529;28;19947;-62
2021/09/22 04:43:18;;;;;;;;;;;;;;;21.44;63.44;100431.56;2068353;28;19999;-62
2021/09/22 04:44:19;;;;;;;;;;;;;;;21.44;63.39;100427.97;2061841;28;20404;-62
2021/09/22 04:45:19;;;;;;;;;;;;;;;21.45;63.38;100425.06;2068706;28;19909;-62
2021/09/22 04:46:20;;;;;;;;;;;;;;;21.45;63.47;100421.47;2068140;28;19944;-61
2021/09/22 04:47:20;;;;;;;;;;;;;;;21.45;63.44;100421.47;2071320;28;20700;-62
2021/09/22 04:48:20;;;;;;;;;;;;;;;21.44;63.17;100420.59;2069278;28;19920;-61
2021/09/22 04:49:21;;;;;;;;;;;;;;;21.44;63.22;100420.59;2070041;28;19955;-62
2021/09/22 04:50:21;;;;;;;;;;;;;;;21.45;63.36;100413.22;2067532;28;19913;-61
2021/09/22 04:51:22;;;;;;;;;;;;;;;21.44;63.48;100415.13;2061600;28;19921;-62
2021/09/22 04:52:22;;;;;;;;;;;;;;;21.43;63.45;100407.03;2063557;28;19953;-62
2021/09/22 04:53:22;;;;;;;;;;;;;;;21.43;63.39;100404.28;2061132;28;19925;-61
2021/09/22 04:54:23;;;;;;;;;;;;;;;21.43;63.57;100407.03;2061826;28;20424;-61
2021/09/22 04:55:23;;;;;;;;;;;;;;;21.43;63.43;100401.56;2067890;28;19913;-62
2021/09/22 04:56:24;;;;;;;;;;;;;;;21.44;63.53;100406.03;2066613;28;19924;-62
2021/09/22 04:57:24;;;;;;;;;;;;;;;21.43;63.59;100402.41;2061880;28;19914;-61
2021/09/22 04:58:24;;;;;;;;;;;;;;;21.43;63.32;100404.28;2065054;28;19916;-62
2021/09/22 04:59:25;;;;;;;;;;;;;;;21.43;63.43;100407.03;2063472;28;19913;-62
2021/09/22 05:00:25;;;;;;;;;;;;;;;21.42;63.36;100406.19;2063477;28;19913;-61
2021/09/22 05:01:25;;;;;;;;;;;;;;;21.43;63.40;100412.53;2061764;28;20276;-62
2021/09/22 05:02:26;;;;;;;;;;;;;;;21.42;63.20;100406.19;2061312;28;19914;-61
2021/09/22 05:03:26;;;;;;;;;;;;;;;21.42;63.56;100405.31;2061514;28;19908;-61
2021/09/22 05:04:26;;;;;;;;;;;;;;;21.43;63.50;100412.53;2067653;28;20007;-61
2021/09/22 05:05:27;;;;;;;;;;;;;;;21.43;63.40;100412.53;2068278;28;19909;-61
2021/09/22 05:06:27;;;;;;;;;;;;;;;21.42;63.29;100406.19;2064683;28;19987;-62
2021/09/22 05:07:27;;;;;;;;;;;;;;;21.42;63.26;100410.81;2061191;28;20226;-62
2021/09/22 05:08:27;;;;;;;;;;;;;;;21.43;63.32;100412.53;2063569;28;19924;-62
2021/09/22 05:09:28;;;;;;;;;;;;;;;21.42;63.49;100416.28;2067820;28;19978;-62
2021/09/22 05:10:28;;;;;;;;;;;;;;;21.42;63.35;100419.03;2069898;28;20313;-61
2021/09/22 05:11:29;;;;;;;;;;;;;;;21.42;63.41;100410.81;2063031;28;19953;-62
2021/09/22 05:12:29;;;;;;;;;;;;;;;21.42;63.11;100417.16;2061649;28;20020;-62
2021/09/22 05:13:29;;;;;;;;;;;;;;;21.42;63.20;100411.66;2070966;28;19963;-62
2021/09/22 05:14:30;;;;;;;;;;;;;;;21.40;63.43;100409.06;2065128;28;20296;-62
2021/09/22 05:15:30;;;;;;;;;;;;;;;21.42;63.11;100408.06;2063145;28;19917;-61